createdAt,value
2022-11-05T00:00:32.857Z,10.23
2022-11-05T00:03:17.780Z,9.77
2022-11-05T00:06:04.219Z,9.87
2022-11-05T00:08:49.633Z,9.70
2022-11-05T00:11:18.442Z,10.17
2022-11-05T00:14:05.603Z,9.27
2022-11-05T00:16:45.688Z,9.17
2022-11-05T00:19:15.035Z,10.57
2022-11-05T00:22:00.875Z,9.67
2022-11-05T00:24:46.553Z,9.17
2022-11-05T00:27:15.044Z,9.33
2022-11-05T00:29:44.365Z,9.77
2022-11-05T00:32:12.320Z,10.20
2022-11-05T00:34:40.336Z,10.17
2022-11-05T00:37:08.276Z,10.23
2022-11-05T00:39:36.374Z,9.93
2022-11-05T00:42:21.579Z,9.87
2022-11-05T00:45:03.035Z,9.67
2022-11-05T00:47:49.647Z,10.50
2022-11-05T00:50:17.798Z,9.53
2022-11-05T00:52:58.098Z,10.30
2022-11-05T00:55:29.410Z,10.33
2022-11-05T00:57:58.556Z,9.83
2022-11-05T01:00:30.159Z,10.30
2022-11-05T01:03:02.706Z,10.30
2022-11-05T01:05:32.096Z,10.30
2022-11-05T01:08:00.334Z,10.50
2022-11-05T01:10:28.488Z,10.47
2022-11-05T01:13:00.096Z,10.07
2022-11-05T01:15:29.613Z,9.80
2022-11-05T01:17:57.712Z,10.90
2022-11-05T01:20:25.803Z,10.00
2022-11-05T01:22:54.084Z,10.90
2022-11-05T01:25:22.191Z,10.03
2022-11-05T01:27:50.189Z,11.13
2022-11-05T01:30:18.442Z,10.33
2022-11-05T01:32:47.808Z,10.50
2022-11-05T01:35:18.177Z,10.53
2022-11-05T01:37:46.645Z,10.03
2022-11-05T01:40:16.540Z,10.63
2022-11-05T01:42:44.930Z,11.37
2022-11-05T01:45:16.311Z,10.13
2022-11-05T01:47:58.720Z,10.03
2022-11-05T01:50:42.308Z,10.70
2022-11-05T01:53:20.850Z,10.10
2022-11-05T01:55:55.907Z,10.60
2022-11-05T01:58:29.990Z,10.80
2022-11-05T02:00:58.308Z,10.27
2022-11-05T02:03:28.690Z,9.87
2022-11-05T02:05:59.817Z,10.63
2022-11-05T02:08:41.584Z,10.00
2022-11-05T02:11:10.127Z,10.57
2022-11-05T02:13:38.214Z,10.53
2022-11-05T02:16:13.088Z,10.30
2022-11-05T02:18:52.663Z,11.30
2022-11-05T02:21:46.685Z,10.90
2022-11-05T02:24:40.527Z,10.70
2022-11-05T02:27:15.591Z,10.30
2022-11-05T02:30:05.072Z,10.83
2022-11-05T02:32:58.233Z,10.97
2022-11-05T02:35:43.211Z,10.57
2022-11-05T02:38:17.870Z,11.43
2022-11-05T02:40:55.892Z,10.83
2022-11-05T02:43:32.034Z,10.40
2022-11-05T02:46:04.472Z,10.23
2022-11-05T02:48:45.742Z,11.20
2022-11-05T02:51:21.980Z,10.90
2022-11-05T02:53:54.876Z,11.43
2022-11-05T02:56:26.647Z,11.43
2022-11-05T02:58:54.537Z,11.23
2022-11-05T03:01:22.645Z,11.43
2022-11-05T03:03:54.084Z,10.73
2022-11-05T03:06:49.441Z,11.57
2022-11-05T03:09:50.659Z,11.70
2022-11-05T03:12:28.025Z,11.77
2022-11-05T03:15:03.146Z,11.50
2022-11-05T03:17:41.897Z,11.90
2022-11-05T03:20:19.485Z,11.10
2022-11-05T03:22:52.819Z,11.70
2022-11-05T03:25:25.190Z,12.10
2022-11-05T03:27:58.149Z,12.13
2022-11-05T03:30:26.966Z,12.43
2022-11-05T03:32:59.981Z,12.57
2022-11-05T03:35:35.551Z,12.20
2022-11-05T03:38:07.299Z,11.90
2022-11-05T03:40:37.687Z,12.53
2022-11-05T03:43:09.675Z,11.87
2022-11-05T03:45:42.001Z,12.50
2022-11-05T03:48:13.799Z,11.70
2022-11-05T03:50:50.224Z,11.97
2022-11-05T03:53:23.599Z,12.00
2022-11-05T03:55:57.691Z,12.40
2022-11-05T03:58:27.311Z,13.40
2022-11-05T04:00:55.391Z,13.17
2022-11-05T04:03:23.425Z,12.17
2022-11-05T04:06:09.010Z,13.27
2022-11-05T04:08:54.458Z,12.37
2022-11-05T04:11:40.164Z,13.10
2022-11-05T04:14:08.164Z,13.23
2022-11-05T04:16:53.739Z,14.00
2022-11-05T04:19:42.520Z,13.60
2022-11-05T04:22:29.316Z,13.33
2022-11-05T04:24:57.401Z,14.50
2022-11-05T04:27:25.425Z,14.90
2022-11-05T04:30:10.809Z,15.17
2022-11-05T04:32:38.809Z,14.37
2022-11-05T04:35:07.168Z,15.20
2022-11-05T04:37:36.518Z,14.80
2022-11-05T04:40:04.709Z,14.67
2022-11-05T04:42:32.699Z,14.60
2022-11-05T04:45:00.725Z,15.17
2022-11-05T04:47:28.705Z,15.30
2022-11-05T04:49:56.736Z,15.83
2022-11-05T04:52:24.793Z,14.97
2022-11-05T04:54:54.181Z,14.93
2022-11-05T04:57:22.236Z,16.57
2022-11-05T04:59:50.498Z,16.10
2022-11-05T05:02:18.639Z,15.83
2022-11-05T05:04:46.712Z,16.80
2022-11-05T05:07:14.759Z,15.63
2022-11-05T05:09:42.810Z,16.60
2022-11-05T05:12:12.106Z,16.57
2022-11-05T05:14:40.446Z,16.20
2022-11-05T05:17:08.450Z,16.37
2022-11-05T05:19:56.576Z,17.30
2022-11-05T05:22:23.508Z,17.30
2022-11-05T05:24:52.919Z,16.50
2022-11-05T05:27:23.408Z,17.10
2022-11-05T05:29:51.689Z,17.00
2022-11-05T05:32:19.811Z,17.57
2022-11-05T05:34:48.136Z,17.83
2022-11-05T05:37:16.484Z,18.03
2022-11-05T05:39:46.093Z,18.50
2022-11-05T05:42:14.554Z,17.60
2022-11-05T05:44:44.060Z,17.20
2022-11-05T05:47:12.186Z,17.27
2022-11-05T05:49:40.307Z,18.20
2022-11-05T05:52:08.386Z,17.27
2022-11-05T05:54:42.283Z,17.10
2022-11-05T05:57:11.298Z,17.57
2022-11-05T05:59:39.327Z,18.17
2022-11-05T06:02:08.827Z,18.83
2022-11-05T06:04:37.000Z,18.07
2022-11-05T06:07:05.234Z,17.67
2022-11-05T06:09:33.448Z,18.47
2022-11-05T06:12:01.465Z,19.07
2022-11-05T06:14:29.538Z,18.37
2022-11-05T06:16:57.525Z,19.70
2022-11-05T06:19:27.196Z,19.70
2022-11-05T06:21:55.133Z,19.87
2022-11-05T06:24:23.141Z,18.93
2022-11-05T06:26:51.198Z,19.40
2022-11-05T06:29:19.441Z,18.93
2022-11-05T06:31:47.476Z,19.50
2022-11-05T06:34:15.465Z,18.93
2022-11-05T06:36:45.047Z,19.20
2022-11-05T06:39:13.717Z,19.73
2022-11-05T06:42:17.261Z,19.93
2022-11-05T06:44:30.405Z,21.00
2022-11-05T06:46:58.470Z,20.10
2022-11-05T06:49:26.594Z,18.67
2022-11-05T06:51:55.969Z,19.47
2022-11-05T06:54:24.371Z,19.37
2022-11-05T06:56:52.492Z,19.27
2022-11-05T06:59:20.647Z,20.33
2022-11-05T07:01:48.837Z,19.30
2022-11-05T07:04:17.032Z,20.07
2022-11-05T07:06:45.037Z,22.37
2022-11-05T07:09:14.540Z,20.60
2022-11-05T07:11:42.609Z,19.40
2022-11-05T07:14:10.714Z,19.80
2022-11-05T07:16:39.341Z,21.30
2022-11-05T07:19:07.500Z,19.80
2022-11-05T07:21:35.492Z,19.07
2022-11-05T07:24:03.828Z,19.50
2022-11-05T07:26:34.681Z,19.20
2022-11-05T07:29:03.305Z,20.50
2022-11-05T07:31:31.390Z,21.03
2022-11-05T07:33:59.526Z,20.47
2022-11-05T07:36:27.560Z,20.83
2022-11-05T07:39:00.057Z,21.63
2022-11-05T07:41:29.303Z,20.07
2022-11-05T07:43:58.746Z,21.50
2022-11-05T07:46:26.745Z,20.60
2022-11-05T07:48:54.702Z,19.87
2022-11-05T07:51:23.087Z,20.27
2022-11-05T07:53:51.056Z,20.07
2022-11-05T07:56:19.162Z,21.20
2022-11-05T07:58:47.276Z,23.50
2022-11-05T08:01:16.750Z,20.47
2022-11-05T08:03:44.999Z,22.63
2022-11-05T08:06:16.690Z,23.30
2022-11-05T08:08:44.650Z,23.53
2022-11-05T08:11:13.363Z,23.13
2022-11-05T08:13:42.760Z,23.67
2022-11-05T08:16:11.119Z,21.97
2022-11-05T08:18:40.480Z,22.37
2022-11-05T08:21:09.492Z,22.07
2022-11-05T08:23:38.780Z,21.63
2022-11-05T08:26:07.140Z,22.53
2022-11-05T08:28:35.144Z,22.03
2022-11-05T08:31:03.053Z,22.47
2022-11-05T08:33:31.415Z,21.67
2022-11-05T08:36:04.584Z,21.80
2022-11-05T08:38:32.519Z,21.63
2022-11-05T08:41:00.507Z,23.77
2022-11-05T08:43:28.457Z,24.03
2022-11-05T08:45:56.400Z,22.97
2022-11-05T08:48:24.440Z,23.00
2022-11-05T08:50:52.475Z,23.10
2022-11-05T08:53:22.025Z,22.20
2022-11-05T08:55:51.449Z,22.13
2022-11-05T08:58:20.725Z,22.20
2022-11-05T09:00:50.504Z,21.80
2022-11-05T09:03:19.000Z,21.37
2022-11-05T09:05:47.244Z,20.80
2022-11-05T09:08:16.863Z,22.00
2022-11-05T09:10:47.726Z,22.43
2022-11-05T09:13:19.320Z,21.73
2022-11-05T09:15:48.727Z,22.00
2022-11-05T09:18:18.030Z,22.07
2022-11-05T09:20:46.471Z,21.27
2022-11-05T09:23:15.871Z,20.90
2022-11-05T09:25:44.022Z,21.23
2022-11-05T09:28:17.069Z,22.00
2022-11-05T09:30:46.500Z,21.47
2022-11-05T09:33:14.928Z,21.10
2022-11-05T09:35:43.935Z,21.33
2022-11-05T09:38:12.581Z,22.07
2022-11-05T09:40:46.519Z,22.20
2022-11-05T09:43:26.092Z,24.10
2022-11-05T09:46:00.395Z,23.27
2022-11-05T09:48:31.890Z,22.33
2022-11-05T09:51:00.785Z,22.47
2022-11-05T09:53:29.853Z,21.83
2022-11-05T09:56:00.066Z,21.23
2022-11-05T09:58:38.863Z,20.87
2022-11-05T10:01:12.310Z,21.53
2022-11-05T10:03:46.775Z,22.00
2022-11-05T10:06:26.522Z,21.87
2022-11-05T10:09:01.961Z,24.20
2022-11-05T10:11:38.642Z,23.20
2022-11-05T10:14:16.276Z,23.60
2022-11-05T10:16:49.759Z,22.93
2022-11-05T10:19:23.986Z,24.90
2022-11-05T10:22:10.701Z,24.87
2022-11-05T10:24:41.809Z,25.20
2022-11-05T10:27:15.587Z,22.00
2022-11-05T10:29:45.564Z,25.13
2022-11-05T10:32:21.529Z,22.73
2022-11-05T10:34:50.952Z,21.73
2022-11-05T10:37:20.905Z,20.83
2022-11-05T10:39:50.391Z,22.17
2022-11-05T10:42:35.937Z,23.27
2022-11-05T10:45:14.678Z,22.77
2022-11-05T10:47:53.350Z,22.73
2022-11-05T10:50:25.300Z,22.43
2022-11-05T10:52:59.091Z,23.87
2022-11-05T10:55:30.230Z,22.93
2022-11-05T10:58:10.213Z,23.37
2022-11-05T11:00:39.994Z,23.67
2022-11-05T11:03:36.872Z,22.67
2022-11-05T11:06:07.719Z,23.43
2022-11-05T11:08:37.653Z,22.80
2022-11-05T11:11:08.922Z,22.80
2022-11-05T11:14:00.389Z,23.17
2022-11-05T11:16:34.710Z,22.13
2022-11-05T11:19:04.105Z,22.70
2022-11-05T11:21:33.841Z,23.47
2022-11-05T11:24:03.828Z,23.93
2022-11-05T11:26:34.478Z,24.37
2022-11-05T11:29:09.417Z,22.63
2022-11-05T11:31:41.466Z,25.07
2022-11-05T11:34:17.694Z,23.77
2022-11-05T11:36:49.007Z,24.10
2022-11-05T11:39:20.587Z,24.33
2022-11-05T11:41:53.656Z,24.13
2022-11-05T11:44:27.089Z,22.73
2022-11-05T11:46:58.668Z,24.07
2022-11-05T11:49:40.550Z,24.67
2022-11-05T11:52:15.252Z,24.30
2022-11-05T11:54:43.730Z,25.00
2022-11-05T11:57:26.014Z,24.70
2022-11-05T12:00:08.236Z,25.47
2022-11-05T12:03:05.137Z,26.37
2022-11-05T12:05:40.133Z,25.30
2022-11-05T12:08:21.938Z,26.03
2022-11-05T12:10:58.915Z,25.57
2022-11-05T12:13:47.843Z,27.27
2022-11-05T12:16:25.076Z,26.13
2022-11-05T12:19:03.429Z,27.00
2022-11-05T12:21:52.649Z,26.33
2022-11-05T12:24:47.530Z,26.43
2022-11-05T12:27:27.626Z,26.33
2022-11-05T12:30:02.717Z,27.77
2022-11-05T12:32:48.284Z,28.10
2022-11-05T12:35:50.921Z,28.93
2022-11-05T12:38:32.636Z,29.37
2022-11-05T12:41:12.977Z,30.23
2022-11-05T12:43:54.397Z,29.30
2022-11-05T12:46:30.358Z,27.57
2022-11-05T12:49:32.835Z,27.73
2022-11-05T12:52:19.163Z,26.53
2022-11-05T12:55:01.088Z,28.07
2022-11-05T12:57:32.478Z,29.97
2022-11-05T13:00:08.249Z,30.53
2022-11-05T13:02:40.879Z,29.60
2022-11-05T13:05:19.428Z,28.47
2022-11-05T13:07:54.399Z,29.47
2022-11-05T13:10:29.161Z,30.67
2022-11-05T13:13:03.457Z,29.30
2022-11-05T13:15:36.338Z,33.30
2022-11-05T13:18:07.573Z,33.33
2022-11-05T13:20:39.741Z,31.40
2022-11-05T13:23:18.741Z,32.37
2022-11-05T13:25:53.620Z,31.40
2022-11-05T13:28:32.819Z,31.53
2022-11-05T13:31:05.393Z,33.87
2022-11-05T13:33:35.625Z,32.80
2022-11-05T13:36:26.875Z,33.20
2022-11-05T13:39:01.111Z,35.67
2022-11-05T13:41:39.213Z,34.87
2022-11-05T13:44:24.519Z,38.63
2022-11-05T13:47:09.825Z,35.80
2022-11-05T13:50:14.180Z,37.17
2022-11-05T13:52:57.746Z,33.70
2022-11-05T13:55:43.922Z,32.00
2022-11-05T13:58:28.600Z,31.53
2022-11-05T14:01:08.557Z,32.67
2022-11-05T14:03:39.404Z,33.07
2022-11-05T14:06:10.798Z,35.57
2022-11-05T14:08:44.542Z,41.97
2022-11-05T14:11:22.967Z,40.30
2022-11-05T14:13:56.215Z,35.10
2022-11-05T14:16:25.915Z,32.63
2022-11-05T14:18:56.590Z,34.43
2022-11-05T14:21:50.231Z,33.83
2022-11-05T14:24:43.135Z,32.40
2022-11-05T14:27:47.166Z,34.20
2022-11-05T14:30:45.041Z,34.33
2022-11-05T14:33:30.489Z,34.43
2022-11-05T14:36:43.353Z,33.60
2022-11-05T14:39:30.034Z,33.63
2022-11-05T14:42:05.638Z,33.57
2022-11-05T14:44:56.385Z,34.73
2022-11-05T14:47:27.190Z,33.90
2022-11-05T14:49:59.745Z,33.63
2022-11-05T14:52:28.147Z,32.97
2022-11-05T14:54:58.016Z,33.97
2022-11-05T14:58:20.307Z,34.53
2022-11-05T15:00:51.012Z,34.33
2022-11-05T15:04:00.458Z,33.50
2022-11-05T15:06:34.824Z,33.27
2022-11-05T15:09:15.694Z,33.57
2022-11-05T15:11:52.148Z,35.37
2022-11-05T15:14:24.468Z,38.47
2022-11-05T15:16:57.087Z,37.07
2022-11-05T15:19:30.126Z,35.73
2022-11-05T15:21:59.339Z,35.77
2022-11-05T15:24:29.204Z,36.83
2022-11-05T15:27:03.705Z,35.63
2022-11-05T15:29:35.165Z,37.50
2022-11-05T15:32:06.165Z,42.73
2022-11-05T15:34:35.888Z,42.63
2022-11-05T15:37:20.694Z,36.27
2022-11-05T15:39:50.470Z,41.83
2022-11-05T15:42:22.145Z,42.07
2022-11-05T15:44:54.541Z,40.93
2022-11-05T15:47:27.608Z,40.87
2022-11-05T15:49:58.880Z,41.90
2022-11-05T15:52:34.758Z,43.07
2022-11-05T15:55:23.724Z,41.97
2022-11-05T15:57:55.512Z,42.13
2022-11-05T16:00:25.731Z,42.67
2022-11-05T16:02:59.474Z,41.30
2022-11-05T16:05:30.199Z,43.80
2022-11-05T16:08:00.170Z,44.03
2022-11-05T16:10:31.593Z,43.87
2022-11-05T16:13:23.229Z,46.37
2022-11-05T16:15:55.790Z,45.20
2022-11-05T16:18:31.371Z,47.77
2022-11-05T16:21:04.678Z,43.73
2022-11-05T16:23:45.146Z,47.90
2022-11-05T16:27:01.263Z,44.10
2022-11-05T16:29:29.036Z,39.50
2022-11-05T16:31:59.008Z,39.27
2022-11-05T16:34:33.244Z,38.07
2022-11-05T16:37:01.739Z,39.07
2022-11-05T16:39:29.859Z,39.37
2022-11-05T16:41:58.767Z,37.97
2022-11-05T16:44:27.370Z,37.93
2022-11-05T16:46:58.764Z,39.20
2022-11-05T16:49:28.630Z,37.03
2022-11-05T16:51:56.667Z,38.37
2022-11-05T16:54:26.713Z,35.50
2022-11-05T16:56:54.870Z,36.67
2022-11-05T16:59:22.914Z,39.37
2022-11-05T17:01:55.616Z,39.70
2022-11-05T17:04:24.132Z,41.13
2022-11-05T17:06:53.435Z,39.80
2022-11-05T17:09:21.494Z,38.37
2022-11-05T17:11:53.443Z,35.60
2022-11-05T17:14:21.487Z,36.03
2022-11-05T17:16:49.854Z,35.43
2022-11-05T17:19:18.018Z,36.27
2022-11-05T17:21:46.123Z,35.53
2022-11-05T17:24:15.899Z,36.90
2022-11-05T17:26:43.993Z,34.97
2022-11-05T17:29:12.020Z,37.70
2022-11-05T17:31:42.902Z,40.03
2022-11-05T17:34:12.881Z,38.20
2022-11-05T17:36:41.384Z,37.17
2022-11-05T17:39:11.042Z,37.00
2022-11-05T17:41:50.253Z,34.60
2022-11-05T17:44:18.361Z,36.57
2022-11-05T17:46:49.800Z,37.70
2022-11-05T17:49:18.367Z,36.60
2022-11-05T17:51:49.369Z,35.67
2022-11-05T17:54:19.814Z,37.83
2022-11-05T17:56:50.633Z,36.30
2022-11-05T17:59:21.077Z,35.30
2022-11-05T18:01:49.233Z,34.90
2022-11-05T18:04:17.659Z,32.70
2022-11-05T18:06:45.747Z,34.37
2022-11-05T18:09:14.653Z,34.13
2022-11-05T18:11:43.883Z,34.53
2022-11-05T18:14:13.410Z,32.37
2022-11-05T18:16:41.565Z,31.13
2022-11-05T18:19:09.610Z,31.70
2022-11-05T18:21:37.720Z,29.63
2022-11-05T18:24:07.317Z,30.30
2022-11-05T18:26:36.289Z,29.73
2022-11-05T18:29:06.340Z,27.57
2022-11-05T18:31:35.870Z,27.47
2022-11-05T18:34:04.543Z,24.73
2022-11-05T18:36:33.949Z,22.87
2022-11-05T18:39:03.234Z,22.50
2022-11-05T18:41:31.808Z,22.47
2022-11-05T18:44:01.071Z,21.63
2022-11-05T18:46:56.679Z,19.67
2022-11-05T18:49:19.535Z,18.63
2022-11-05T18:51:47.517Z,17.57
2022-11-05T18:54:15.633Z,17.30
2022-11-05T18:56:46.064Z,17.20
2022-11-05T18:59:35.777Z,16.17
2022-11-05T19:02:03.970Z,15.27
2022-11-05T19:04:33.624Z,14.33
2022-11-05T19:07:04.772Z,15.30
2022-11-05T19:09:33.929Z,15.30
2022-11-05T19:12:02.121Z,15.23
2022-11-05T19:14:31.001Z,15.07
2022-11-05T19:16:59.406Z,15.50
2022-11-05T19:19:28.103Z,13.97
2022-11-05T19:21:57.982Z,15.47
2022-11-05T19:24:26.092Z,15.13
2022-11-05T19:26:54.264Z,14.80
2022-11-05T19:29:22.773Z,14.63
2022-11-05T19:31:50.913Z,15.20
2022-11-05T19:34:20.593Z,15.43
2022-11-05T19:36:48.821Z,16.33
2022-11-05T19:39:18.299Z,16.87
2022-11-05T19:41:48.187Z,16.07
2022-11-05T19:44:16.513Z,16.37
2022-11-05T19:46:45.099Z,16.97
2022-11-05T19:49:13.952Z,16.97
2022-11-05T19:51:42.176Z,16.67
2022-11-05T19:54:10.310Z,17.67
2022-11-05T19:56:40.101Z,17.47
2022-11-05T19:59:08.749Z,19.47
2022-11-05T20:01:38.135Z,18.80
2022-11-05T20:04:06.891Z,19.80
2022-11-05T20:06:40.503Z,18.60
2022-11-05T20:09:25.804Z,18.50
2022-11-05T20:11:56.694Z,18.63
2022-11-05T20:14:26.287Z,19.60
2022-11-05T20:16:55.196Z,20.93
2022-11-05T20:19:24.320Z,20.77
2022-11-05T20:21:53.137Z,21.77
2022-11-05T20:24:25.340Z,22.20
2022-11-05T20:26:56.959Z,21.60
2022-11-05T20:29:33.689Z,22.23
2022-11-05T20:32:03.933Z,21.00
2022-11-05T20:34:33.264Z,20.73
2022-11-05T20:37:01.657Z,19.00
2022-11-05T20:39:30.112Z,19.90
2022-11-05T20:42:00.651Z,18.50
2022-11-05T20:44:29.103Z,20.07
2022-11-05T20:46:57.268Z,19.10
2022-11-05T20:49:26.061Z,18.83
2022-11-05T20:51:54.781Z,18.43
2022-11-05T20:54:23.207Z,18.40
2022-11-05T20:56:52.313Z,19.10
2022-11-05T20:59:22.268Z,18.80
2022-11-05T21:01:51.949Z,17.90
2022-11-05T21:04:20.514Z,18.37
2022-11-05T21:06:48.723Z,16.67
2022-11-05T21:09:17.147Z,18.17
2022-11-05T21:12:05.471Z,16.10
2022-11-05T21:14:34.985Z,17.10
2022-11-05T21:17:03.322Z,17.10
2022-11-05T21:19:32.466Z,17.73
2022-11-05T21:22:00.837Z,17.43
2022-11-05T21:24:29.016Z,16.50
2022-11-05T21:26:59.274Z,17.50
2022-11-05T21:29:27.391Z,15.53
2022-11-05T21:31:56.640Z,16.23
2022-11-05T21:34:25.237Z,15.20
2022-11-05T21:36:53.366Z,15.40
2022-11-05T21:39:21.404Z,16.47
2022-11-05T21:41:49.421Z,16.43
2022-11-05T21:44:17.481Z,16.43
2022-11-05T21:46:45.473Z,15.43
2022-11-05T21:49:15.554Z,15.77
2022-11-05T21:52:00.974Z,15.13
2022-11-05T21:54:46.349Z,16.03
2022-11-05T21:57:33.913Z,15.30
2022-11-05T22:00:02.003Z,15.63
2022-11-05T22:02:32.494Z,15.60
2022-11-05T22:05:02.575Z,15.40
2022-11-05T22:07:33.408Z,15.20
2022-11-05T22:10:02.451Z,15.33
2022-11-05T22:12:31.991Z,15.43
2022-11-05T22:15:00.077Z,15.00
2022-11-05T22:17:28.636Z,14.53
2022-11-05T22:19:56.651Z,14.73
2022-11-05T22:22:26.096Z,15.20
2022-11-05T22:24:54.235Z,14.37
2022-11-05T22:27:22.576Z,13.73
2022-11-05T22:29:51.113Z,14.37
2022-11-05T22:32:19.561Z,14.27
2022-11-05T22:34:49.194Z,14.07
2022-11-05T22:37:17.391Z,13.80
2022-11-05T22:39:46.691Z,14.43
2022-11-05T22:42:14.696Z,14.63
2022-11-05T22:44:43.077Z,14.10
2022-11-05T22:47:11.101Z,13.63
2022-11-05T22:49:39.204Z,13.90
2022-11-05T22:52:07.818Z,13.60
2022-11-05T22:54:39.245Z,12.00
2022-11-05T22:57:09.146Z,11.57
2022-11-05T22:59:37.919Z,13.53
2022-11-05T23:02:09.904Z,12.20
2022-11-05T23:04:38.658Z,12.30
2022-11-05T23:07:27.918Z,13.13
2022-11-05T23:10:14.155Z,12.80
2022-11-05T23:12:44.722Z,12.50
2022-11-05T23:15:34.366Z,12.57
2022-11-05T23:18:20.421Z,12.47
2022-11-05T23:21:06.889Z,13.00
2022-11-05T23:23:52.421Z,12.77
2022-11-05T23:26:37.922Z,12.77
2022-11-05T23:29:07.210Z,13.10
2022-11-05T23:31:52.652Z,12.77
2022-11-05T23:34:20.631Z,12.20
2022-11-05T23:37:06.095Z,12.20
2022-11-05T23:39:39.637Z,11.37
2022-11-05T23:42:28.779Z,12.00
2022-11-05T23:45:16.064Z,12.03
2022-11-05T23:48:02.084Z,10.53
2022-11-05T23:50:35.664Z,11.37
2022-11-05T23:53:07.971Z,11.97
2022-11-05T23:55:36.294Z,11.93
2022-11-05T23:58:04.395Z,11.57
